createdAt,value
2019-02-18T00:00:32.817Z,56.90
2019-02-18T00:03:01.481Z,57.10
2019-02-18T00:05:30.009Z,57.20
2019-02-18T00:07:58.242Z,57.20
2019-02-18T00:10:26.701Z,57.20
2019-02-18T00:12:56.296Z,57.50
2019-02-18T00:15:24.550Z,57.60
2019-02-18T00:17:56.401Z,57.80
2019-02-18T00:20:25.630Z,58.20
2019-02-18T00:22:55.510Z,58.20
2019-02-18T00:25:24.478Z,58.30
2019-02-18T00:27:52.737Z,58.60
2019-02-18T00:30:21.771Z,58.70
2019-02-18T00:32:54.006Z,59.00
2019-02-18T00:35:22.255Z,59.10
2019-02-18T00:37:51.052Z,59.50
2019-02-18T00:40:20.076Z,59.50
2019-02-18T00:42:48.362Z,59.50
2019-02-18T00:45:16.716Z,59.70
2019-02-18T00:47:45.101Z,60.20
2019-02-18T00:50:13.329Z,60.20
2019-02-18T00:52:41.560Z,60.60
2019-02-18T00:55:10.146Z,60.70
2019-02-18T00:57:38.490Z,60.90
2019-02-18T01:00:16.851Z,61.20
2019-02-18T01:02:45.110Z,61.20
2019-02-18T01:05:13.344Z,61.60
2019-02-18T01:07:41.799Z,61.60
2019-02-18T01:10:11.972Z,61.90
2019-02-18T01:12:40.197Z,62.00
2019-02-18T01:15:14.821Z,62.10
2019-02-18T01:17:43.167Z,62.00
2019-02-18T01:20:13.599Z,62.30
2019-02-18T01:22:42.218Z,62.50
2019-02-18T01:25:12.419Z,62.50
2019-02-18T01:27:40.763Z,62.80
2019-02-18T01:30:15.596Z,63.10
2019-02-18T01:32:44.309Z,63.30
2019-02-18T01:35:20.257Z,63.60
2019-02-18T01:37:48.967Z,63.70
2019-02-18T01:40:17.182Z,63.70
2019-02-18T01:42:45.960Z,64.10
2019-02-18T01:45:14.574Z,64.50
2019-02-18T01:47:42.826Z,64.50
2019-02-18T01:50:16.524Z,64.90
2019-02-18T01:52:44.754Z,65.20
2019-02-18T01:55:14.564Z,65.60
2019-02-18T01:57:42.908Z,65.60
2019-02-18T02:00:15.778Z,65.50
2019-02-18T02:02:44.841Z,65.80
2019-02-18T02:05:14.610Z,66.00
2019-02-18T02:07:43.202Z,66.20
2019-02-18T02:10:16.393Z,66.40
2019-02-18T02:12:44.680Z,66.40
2019-02-18T02:15:19.646Z,66.70
2019-02-18T02:17:48.397Z,66.90
2019-02-18T02:20:16.629Z,67.10
2019-02-18T02:22:46.193Z,67.00
2019-02-18T02:25:14.463Z,67.40
2019-02-18T02:27:43.522Z,67.20
2019-02-18T02:30:12.669Z,67.80
2019-02-18T02:32:40.898Z,67.10
2019-02-18T02:35:09.174Z,67.10
2019-02-18T02:37:37.623Z,67.30
2019-02-18T02:40:08.964Z,67.60
2019-02-18T02:42:37.252Z,67.50
2019-02-18T02:45:07.127Z,67.90
2019-02-18T02:47:35.375Z,67.60
2019-02-18T02:50:04.650Z,67.70
2019-02-18T02:52:33.226Z,67.80
2019-02-18T02:55:01.510Z,68.10
2019-02-18T02:57:29.783Z,68.20
2019-02-18T02:59:58.029Z,68.10
2019-02-18T03:02:26.363Z,67.90
2019-02-18T03:04:54.625Z,68.00
2019-02-18T03:07:24.485Z,68.10
2019-02-18T03:09:52.874Z,68.40
2019-02-18T03:12:21.137Z,68.90
2019-02-18T03:14:49.383Z,68.90
2019-02-18T03:17:17.849Z,69.00
2019-02-18T03:19:46.114Z,68.70
2019-02-18T03:22:15.967Z,68.90
2019-02-18T03:25:21.070Z,68.70
2019-02-18T03:27:55.555Z,68.80
2019-02-18T03:30:52.679Z,68.80
2019-02-18T03:33:24.249Z,68.90
2019-02-18T03:35:52.476Z,69.00
2019-02-18T03:38:31.209Z,68.70
2019-02-18T03:41:02.447Z,68.90
2019-02-18T03:43:21.486Z,68.90
2019-02-18T03:45:49.879Z,69.00
2019-02-18T03:48:18.234Z,69.30
2019-02-18T03:50:46.522Z,69.50
2019-02-18T03:53:15.022Z,70.00
2019-02-18T03:55:44.649Z,70.20
2019-02-18T03:58:12.992Z,71.40
2019-02-18T04:00:41.795Z,71.00
2019-02-18T04:03:10.095Z,71.20
2019-02-18T04:05:38.353Z,71.50
2019-02-18T04:08:06.890Z,71.90
2019-02-18T04:10:35.123Z,72.30
2019-02-18T04:13:03.770Z,72.10
2019-02-18T04:15:33.867Z,72.40
2019-02-18T04:18:02.111Z,72.80
2019-02-18T04:20:30.381Z,72.40
2019-02-18T04:22:58.839Z,72.80
2019-02-18T04:25:27.094Z,72.70
2019-02-18T04:27:55.480Z,72.90
2019-02-18T04:30:24.124Z,72.60
2019-02-18T04:32:52.414Z,72.40
2019-02-18T04:35:20.669Z,72.50
2019-02-18T04:37:49.222Z,72.40
2019-02-18T04:40:17.529Z,72.80
2019-02-18T04:42:45.791Z,72.60
2019-02-18T04:45:14.187Z,72.60
2019-02-18T04:47:42.707Z,72.70
2019-02-18T04:50:10.970Z,73.10
2019-02-18T04:52:39.586Z,73.20
2019-02-18T04:55:12.326Z,73.30
2019-02-18T04:57:40.665Z,73.30
2019-02-18T05:00:10.095Z,73.60
2019-02-18T05:02:38.407Z,74.30
2019-02-18T05:05:09.082Z,74.90
2019-02-18T05:07:37.366Z,74.80
2019-02-18T05:10:09.113Z,75.20
2019-02-18T05:12:37.644Z,75.60
2019-02-18T05:15:07.840Z,75.70
2019-02-18T05:17:36.090Z,75.80
2019-02-18T05:20:08.301Z,75.60
2019-02-18T05:22:36.602Z,75.70
2019-02-18T05:25:12.917Z,75.20
2019-02-18T05:27:40.944Z,75.50
2019-02-18T05:30:11.322Z,75.20
2019-02-18T05:32:39.584Z,74.80
2019-02-18T05:35:08.395Z,74.50
2019-02-18T05:37:36.638Z,74.30
2019-02-18T05:40:07.108Z,74.00
2019-02-18T05:42:35.769Z,74.00
2019-02-18T05:45:05.938Z,73.60
2019-02-18T05:47:35.802Z,73.50
2019-02-18T05:50:04.564Z,73.30
2019-02-18T05:52:33.069Z,74.00
2019-02-18T05:55:01.369Z,74.70
2019-02-18T05:57:29.875Z,75.30
2019-02-18T05:59:58.113Z,75.10
2019-02-18T06:02:26.337Z,75.10
2019-02-18T06:04:56.023Z,75.30
2019-02-18T06:07:24.262Z,75.70
2019-02-18T06:09:52.498Z,76.00
2019-02-18T06:12:25.970Z,76.50
2019-02-18T06:14:55.311Z,76.40
2019-02-18T06:17:23.557Z,76.50
2019-02-18T06:19:52.199Z,76.80
2019-02-18T06:22:22.275Z,77.30
2019-02-18T06:24:50.517Z,77.20
2019-02-18T06:27:19.100Z,77.30
2019-02-18T06:29:47.995Z,77.80
2019-02-18T06:32:16.231Z,77.80
2019-02-18T06:34:44.660Z,78.10
2019-02-18T06:37:13.140Z,78.90
2019-02-18T06:39:43.736Z,78.40
2019-02-18T06:42:12.047Z,78.80
2019-02-18T06:44:42.163Z,79.10
2019-02-18T06:47:12.028Z,78.50
2019-02-18T06:49:40.294Z,78.10
2019-02-18T06:52:09.141Z,78.10
2019-02-18T06:54:37.731Z,77.80
2019-02-18T06:57:07.709Z,77.70
2019-02-18T06:59:37.776Z,77.30
2019-02-18T07:02:10.323Z,77.20
2019-02-18T07:04:41.055Z,76.90
2019-02-18T07:07:10.935Z,76.40
2019-02-18T07:09:51.639Z,76.80
2019-02-18T07:12:22.509Z,76.50
2019-02-18T07:14:50.758Z,77.10
2019-02-18T07:17:19.434Z,76.50
2019-02-18T07:19:47.713Z,75.40
2019-02-18T07:22:15.958Z,74.70
2019-02-18T07:24:44.586Z,74.30
2019-02-18T07:27:12.819Z,73.20
2019-02-18T07:29:41.074Z,72.40
2019-02-18T07:32:09.535Z,71.70
2019-02-18T07:34:37.809Z,70.80
2019-02-18T07:37:06.079Z,69.70
2019-02-18T07:39:34.474Z,69.10
2019-02-18T07:42:02.774Z,69.60
2019-02-18T07:44:31.226Z,68.40
2019-02-18T07:46:59.710Z,66.80
2019-02-18T07:49:27.959Z,66.20
2019-02-18T07:51:57.490Z,65.50
2019-02-18T07:54:25.986Z,64.80
2019-02-18T07:56:55.859Z,63.10
2019-02-18T07:59:24.082Z,62.20
2019-02-18T08:01:52.337Z,61.80
2019-02-18T08:04:20.925Z,60.00
2019-02-18T08:06:49.170Z,58.60
2019-02-18T08:09:17.410Z,57.00
2019-02-18T08:11:46.262Z,56.50
2019-02-18T08:14:14.526Z,56.20
2019-02-18T08:16:44.460Z,55.10
2019-02-18T08:19:15.518Z,53.30
2019-02-18T08:21:43.175Z,53.40
2019-02-18T08:24:11.447Z,52.40
2019-02-18T08:26:39.897Z,51.60
2019-02-18T08:29:08.339Z,53.40
2019-02-18T08:31:36.603Z,55.20
2019-02-18T08:34:06.663Z,55.80
2019-02-18T08:36:35.632Z,55.90
2019-02-18T08:39:05.063Z,56.50
2019-02-18T08:41:33.320Z,58.10
2019-02-18T08:44:01.732Z,57.20
2019-02-18T08:46:30.147Z,57.30
2019-02-18T08:48:58.419Z,55.00
2019-02-18T08:51:26.999Z,54.20
2019-02-18T08:53:56.918Z,55.60
2019-02-18T08:56:25.170Z,54.40
2019-02-18T08:58:53.600Z,53.40
2019-02-18T09:01:21.845Z,52.70
2019-02-18T09:03:50.107Z,52.60
2019-02-18T09:06:18.597Z,54.60
2019-02-18T09:08:46.890Z,52.20
2019-02-18T09:11:15.187Z,52.20
2019-02-18T09:13:43.703Z,52.70
2019-02-18T09:16:12.294Z,53.60
2019-02-18T09:18:40.592Z,54.00
2019-02-18T09:21:09.238Z,54.20
2019-02-18T09:23:48.042Z,53.90
2019-02-18T09:26:17.336Z,53.70
2019-02-18T09:28:46.795Z,53.00
2019-02-18T09:31:16.385Z,53.00
2019-02-18T09:33:44.960Z,52.70
2019-02-18T09:36:13.293Z,52.50
2019-02-18T09:38:41.555Z,52.10
2019-02-18T09:41:09.897Z,51.30
2019-02-18T09:43:38.181Z,50.70
2019-02-18T09:46:06.471Z,51.10
2019-02-18T09:48:36.403Z,49.70
2019-02-18T09:51:04.905Z,48.70
2019-02-18T09:53:33.202Z,46.60
2019-02-18T09:56:01.630Z,45.90
2019-02-18T09:58:29.889Z,45.90
2019-02-18T10:00:58.142Z,46.40
2019-02-18T10:03:31.883Z,46.10
2019-02-18T10:05:56.579Z,46.40
2019-02-18T10:08:24.912Z,46.80
2019-02-18T10:10:55.820Z,47.60
2019-02-18T10:13:23.322Z,46.60
2019-02-18T10:15:51.589Z,45.60
2019-02-18T10:18:20.006Z,44.50
2019-02-18T10:20:48.320Z,43.10
2019-02-18T10:23:16.618Z,43.20
2019-02-18T10:25:44.991Z,43.70
2019-02-18T10:28:13.231Z,42.60
2019-02-18T10:30:41.505Z,44.60
2019-02-18T10:33:15.380Z,43.90
2019-02-18T10:35:43.733Z,42.80
2019-02-18T10:38:12.308Z,42.80
2019-02-18T10:40:40.636Z,41.60
2019-02-18T10:43:08.918Z,41.30
2019-02-18T10:45:37.227Z,42.40
2019-02-18T10:48:05.790Z,41.50
2019-02-18T10:50:35.788Z,40.60
2019-02-18T10:53:04.042Z,39.70
2019-02-18T10:55:35.250Z,39.30
2019-02-18T10:58:05.242Z,40.00
2019-02-18T11:00:33.486Z,39.00
2019-02-18T11:03:01.910Z,37.90
2019-02-18T11:05:30.166Z,38.30
2019-02-18T11:07:59.248Z,38.60
2019-02-18T11:10:27.878Z,38.20
2019-02-18T11:12:56.381Z,35.90
2019-02-18T11:15:25.056Z,36.20
2019-02-18T11:17:54.437Z,37.20
2019-02-18T11:20:22.708Z,37.70
2019-02-18T11:22:52.407Z,38.50
2019-02-18T11:25:20.880Z,38.20
2019-02-18T11:27:49.175Z,37.50
2019-02-18T11:30:19.343Z,35.70
2019-02-18T11:32:47.919Z,35.80
2019-02-18T11:35:16.183Z,36.20
2019-02-18T11:37:44.753Z,35.30
2019-02-18T11:40:17.894Z,35.30
2019-02-18T11:42:46.472Z,37.20
2019-02-18T11:45:15.860Z,35.80
2019-02-18T11:47:44.544Z,36.00
2019-02-18T11:50:14.554Z,35.00
2019-02-18T11:52:42.804Z,34.60
2019-02-18T11:55:12.556Z,32.90
2019-02-18T11:57:41.281Z,35.40
2019-02-18T12:00:12.060Z,33.80
2019-02-18T12:02:40.527Z,33.60
2019-02-18T12:05:10.482Z,32.40
2019-02-18T12:07:40.377Z,33.80
2019-02-18T12:10:13.019Z,32.60
2019-02-18T12:12:41.533Z,30.60
2019-02-18T12:15:16.389Z,33.20
2019-02-18T12:17:45.044Z,32.50
2019-02-18T12:20:14.822Z,31.60
2019-02-18T12:22:43.370Z,33.30
2019-02-18T12:25:12.930Z,30.60
2019-02-18T12:27:41.751Z,30.20
2019-02-18T12:30:17.354Z,31.30
2019-02-18T12:32:45.635Z,30.00
2019-02-18T12:35:14.026Z,31.00
2019-02-18T12:37:42.451Z,30.60
2019-02-18T12:40:12.855Z,30.10
2019-02-18T12:42:42.374Z,30.10
2019-02-18T12:45:12.042Z,30.60
2019-02-18T12:47:40.318Z,30.50
2019-02-18T12:50:10.770Z,30.80
2019-02-18T12:52:39.513Z,29.80
2019-02-18T12:55:09.815Z,28.30
2019-02-18T12:57:38.642Z,27.90
2019-02-18T13:00:13.979Z,28.40
2019-02-18T13:02:44.700Z,29.50
2019-02-18T13:05:13.096Z,29.90
2019-02-18T13:07:41.835Z,31.10
2019-02-18T13:10:10.916Z,30.40
2019-02-18T13:12:39.675Z,29.80
2019-02-18T13:15:12.042Z,31.10
2019-02-18T13:17:42.721Z,32.10
2019-02-18T13:20:10.518Z,31.40
2019-02-18T13:22:39.042Z,30.10
2019-02-18T13:25:08.398Z,30.00
2019-02-18T13:27:36.736Z,29.40
2019-02-18T13:30:17.451Z,29.10
2019-02-18T13:32:45.726Z,29.40
2019-02-18T13:35:14.228Z,29.50
2019-02-18T13:37:42.745Z,30.60
2019-02-18T13:40:12.911Z,31.80
2019-02-18T13:42:41.741Z,32.80
2019-02-18T13:45:10.146Z,33.00
2019-02-18T13:47:38.638Z,32.70
2019-02-18T13:50:12.245Z,32.90
2019-02-18T13:52:41.628Z,32.70
2019-02-18T13:55:11.684Z,33.10
2019-02-18T13:57:40.590Z,33.30
2019-02-18T14:00:16.538Z,34.30
2019-02-18T14:02:45.067Z,35.80
2019-02-18T14:05:14.840Z,35.20
2019-02-18T14:07:44.707Z,35.70
2019-02-18T14:10:14.815Z,34.90
2019-02-18T14:12:43.826Z,35.70
2019-02-18T14:15:14.513Z,36.30
2019-02-18T14:17:47.619Z,36.10
2019-02-18T14:20:18.630Z,37.00
2019-02-18T14:22:49.335Z,37.50
2019-02-18T14:25:19.517Z,37.40
2019-02-18T14:27:48.047Z,37.50
2019-02-18T14:30:21.522Z,37.60
2019-02-18T14:32:51.752Z,38.00
2019-02-18T14:35:20.045Z,37.80
2019-02-18T14:37:49.759Z,37.10
2019-02-18T14:40:19.674Z,37.00
2019-02-18T14:42:49.284Z,36.70
2019-02-18T14:45:19.373Z,37.30
2019-02-18T14:47:47.620Z,37.80
2019-02-18T14:50:17.947Z,37.10
2019-02-18T14:52:47.102Z,37.10
2019-02-18T14:55:15.643Z,37.30
2019-02-18T14:57:43.957Z,37.50
2019-02-18T15:00:17.146Z,38.90
2019-02-18T15:02:45.395Z,38.20
2019-02-18T15:05:13.776Z,37.80
2019-02-18T15:07:44.737Z,37.70
2019-02-18T15:10:15.433Z,38.40
2019-02-18T15:12:44.151Z,38.00
2019-02-18T15:15:12.620Z,39.00
2019-02-18T15:17:40.971Z,37.90
2019-02-18T15:20:11.669Z,38.40
2019-02-18T15:22:42.397Z,37.50
2019-02-18T15:25:12.791Z,37.60
2019-02-18T15:27:44.370Z,37.60
2019-02-18T15:30:17.992Z,38.80
2019-02-18T15:32:49.036Z,38.00
2019-02-18T15:35:17.555Z,39.40
2019-02-18T15:37:46.417Z,38.60
2019-02-18T15:40:16.749Z,39.10
2019-02-18T15:42:47.087Z,38.80
2019-02-18T15:45:16.020Z,39.00
2019-02-18T15:47:47.094Z,38.80
2019-02-18T15:50:15.941Z,38.10
2019-02-18T15:52:47.941Z,37.50
2019-02-18T15:55:16.269Z,37.00
2019-02-18T15:57:45.205Z,37.60
2019-02-18T16:00:24.612Z,37.30
2019-02-18T16:02:53.753Z,37.50
2019-02-18T16:05:21.994Z,37.20
2019-02-18T16:07:50.505Z,37.20
2019-02-18T16:10:19.266Z,36.30
2019-02-18T16:12:50.791Z,36.10
2019-02-18T16:15:20.579Z,36.70
2019-02-18T16:17:49.308Z,36.50
2019-02-18T16:20:17.643Z,36.80
2019-02-18T16:22:45.963Z,37.30
2019-02-18T16:25:23.498Z,37.50
2019-02-18T16:27:53.726Z,38.30
2019-02-18T16:30:22.732Z,38.80
2019-02-18T16:32:52.008Z,39.60
2019-02-18T16:35:20.512Z,40.20
2019-02-18T16:37:50.888Z,40.30
2019-02-18T16:40:19.828Z,40.80
2019-02-18T16:42:49.802Z,41.30
2019-02-18T16:45:18.100Z,41.70
2019-02-18T16:47:46.464Z,41.80
2019-02-18T16:50:15.158Z,42.60
2019-02-18T16:52:43.419Z,42.70
2019-02-18T16:55:14.239Z,42.70
2019-02-18T16:57:42.577Z,43.20
2019-02-18T17:00:28.124Z,43.10
2019-02-18T17:02:56.660Z,43.40
2019-02-18T17:05:24.986Z,43.90
2019-02-18T17:07:55.199Z,44.30
2019-02-18T17:10:23.462Z,44.30
2019-02-18T17:12:53.370Z,44.60
2019-02-18T17:15:22.351Z,44.70
2019-02-18T17:17:50.663Z,45.10
2019-02-18T17:20:18.914Z,45.60
2019-02-18T17:22:47.159Z,46.10
2019-02-18T17:25:17.366Z,46.80
2019-02-18T17:27:46.152Z,46.40
2019-02-18T17:30:15.958Z,47.00
2019-02-18T17:32:44.290Z,47.20
2019-02-18T17:35:14.128Z,47.00
2019-02-18T17:37:42.551Z,48.50
2019-02-18T17:40:15.678Z,48.40
2019-02-18T17:42:44.390Z,47.80
2019-02-18T17:45:16.902Z,47.80
2019-02-18T17:47:46.895Z,48.70
2019-02-18T17:50:16.031Z,48.60
2019-02-18T17:52:44.461Z,49.10
2019-02-18T17:55:14.652Z,49.30
2019-02-18T17:57:43.257Z,49.60
2019-02-18T18:00:14.516Z,49.90
2019-02-18T18:02:43.345Z,50.10
2019-02-18T18:05:17.848Z,50.50
2019-02-18T18:07:48.747Z,50.70
2019-02-18T18:10:17.422Z,51.10
2019-02-18T18:12:47.100Z,51.50
2019-02-18T18:15:20.210Z,51.80
2019-02-18T18:17:48.526Z,51.80
2019-02-18T18:20:16.861Z,52.40
2019-02-18T18:22:50.029Z,52.60
2019-02-18T18:25:22.535Z,52.70
2019-02-18T18:27:51.088Z,53.20
2019-02-18T18:30:20.052Z,53.40
2019-02-18T18:32:48.503Z,53.70
2019-02-18T18:35:16.951Z,53.90
2019-02-18T18:37:46.566Z,54.50
2019-02-18T18:40:17.591Z,54.60
2019-02-18T18:42:48.186Z,54.80
2019-02-18T18:45:17.679Z,55.00
2019-02-18T18:47:49.141Z,55.50
2019-02-18T18:50:20.177Z,56.70
2019-02-18T18:52:49.749Z,55.80
2019-02-18T18:55:18.535Z,56.10
2019-02-18T18:57:46.837Z,56.10
2019-02-18T19:00:27.393Z,56.30
2019-02-18T19:02:58.124Z,56.30
2019-02-18T19:05:26.363Z,56.30
2019-02-18T19:07:54.966Z,56.60
2019-02-18T19:10:23.359Z,56.60
2019-02-18T19:12:51.644Z,56.90
2019-02-18T19:15:20.336Z,56.80
2019-02-18T19:17:48.712Z,56.90
2019-02-18T19:20:17.058Z,57.20
2019-02-18T19:22:45.429Z,57.20
2019-02-18T19:25:13.732Z,57.20
2019-02-18T19:27:42.046Z,57.80
2019-02-18T19:30:25.527Z,58.70
2019-02-18T19:32:53.886Z,58.40
2019-02-18T19:35:22.217Z,59.10
2019-02-18T19:37:50.831Z,59.50
2019-02-18T19:40:19.147Z,59.10
2019-02-18T19:42:48.850Z,59.20
2019-02-18T19:45:20.365Z,59.50
2019-02-18T19:47:48.721Z,59.50
2019-02-18T19:50:18.253Z,59.50
2019-02-18T19:52:47.050Z,59.80
2019-02-18T19:55:15.505Z,59.80
2019-02-18T19:57:43.876Z,60.30
2019-02-18T20:00:15.020Z,60.10
2019-02-18T20:02:44.800Z,60.20
2019-02-18T20:05:13.773Z,61.20
2019-02-18T20:07:44.063Z,61.30
2019-02-18T20:10:12.744Z,61.30
2019-02-18T20:12:41.169Z,61.40
2019-02-18T20:15:12.755Z,61.50
2019-02-18T20:17:43.127Z,61.80
2019-02-18T20:20:14.998Z,62.40
2019-02-18T20:22:45.118Z,62.70
2019-02-18T20:25:15.136Z,63.40
2019-02-18T20:27:45.765Z,62.80
2019-02-18T20:30:17.115Z,63.20
2019-02-18T20:32:48.979Z,63.10
2019-02-18T20:35:21.106Z,63.30
2019-02-18T20:37:51.254Z,63.60
2019-02-18T20:40:22.135Z,63.60
2019-02-18T20:42:52.747Z,63.90
2019-02-18T20:45:23.575Z,64.00
2019-02-18T20:47:53.547Z,64.10
2019-02-18T20:50:23.523Z,64.30
2019-02-18T20:52:53.772Z,64.40
2019-02-18T20:55:23.885Z,65.60
2019-02-18T20:57:54.132Z,64.80
2019-02-18T21:00:24.298Z,64.90
2019-02-18T21:02:54.258Z,65.20
2019-02-18T21:05:24.709Z,65.30
2019-02-18T21:07:54.659Z,65.20
2019-02-18T21:10:24.157Z,65.70
2019-02-18T21:12:52.609Z,65.90
2019-02-18T21:15:20.954Z,65.80
2019-02-18T21:17:49.345Z,66.00
2019-02-18T21:20:18.014Z,66.40
2019-02-18T21:22:46.723Z,66.30
2019-02-18T21:25:17.496Z,67.10
2019-02-18T21:27:46.180Z,66.30
2019-02-18T21:30:20.744Z,66.10
2019-02-18T21:32:49.004Z,66.10
2019-02-18T21:35:17.662Z,66.50
2019-02-18T21:37:46.477Z,66.70
2019-02-18T21:40:14.792Z,67.40
2019-02-18T21:42:43.293Z,67.30
2019-02-18T21:45:14.073Z,67.70
2019-02-18T21:47:42.390Z,68.00
2019-02-18T21:50:10.917Z,68.50
2019-02-18T21:52:43.745Z,69.00
2019-02-18T21:55:12.558Z,68.40
2019-02-18T21:57:40.914Z,68.80
2019-02-18T22:00:18.911Z,69.40
2019-02-18T22:02:48.127Z,69.60
2019-02-18T22:05:16.917Z,69.00
2019-02-18T22:07:46.963Z,68.90
2019-02-18T22:10:17.771Z,69.00
2019-02-18T22:12:46.026Z,69.80
2019-02-18T22:15:17.090Z,69.40
2019-02-18T22:17:46.271Z,69.40
2019-02-18T22:20:14.894Z,70.10
2019-02-18T22:22:44.393Z,69.90
2019-02-18T22:25:13.684Z,70.20
2019-02-18T22:27:42.416Z,70.40
2019-02-18T22:30:13.098Z,70.50
2019-02-18T22:32:41.388Z,70.90
2019-02-18T22:35:11.537Z,71.00
2019-02-18T22:37:39.968Z,70.80
2019-02-18T22:40:13.896Z,71.00
2019-02-18T22:42:42.397Z,71.40
2019-02-18T22:45:11.769Z,71.50
2019-02-18T22:47:41.297Z,71.50
2019-02-18T22:50:11.270Z,72.10
2019-02-18T22:52:39.539Z,72.40
2019-02-18T22:55:09.858Z,72.10
2019-02-18T22:57:40.271Z,72.40
2019-02-18T23:00:28.924Z,72.10
2019-02-18T23:02:57.539Z,72.00
2019-02-18T23:05:25.856Z,72.10
2019-02-18T23:07:55.074Z,72.30
2019-02-18T23:10:23.373Z,72.40
2019-02-18T23:12:51.622Z,72.40
2019-02-18T23:15:20.941Z,72.20
2019-02-18T23:17:49.379Z,72.50
2019-02-18T23:20:17.622Z,72.60
2019-02-18T23:22:45.930Z,72.90
2019-02-18T23:25:15.539Z,73.10
2019-02-18T23:27:43.770Z,73.10
2019-02-18T23:30:12.007Z,72.70
2019-02-18T23:32:41.594Z,72.70
2019-02-18T23:35:10.611Z,72.60
2019-02-18T23:37:38.926Z,72.70
2019-02-18T23:40:08.947Z,73.20
2019-02-18T23:42:37.384Z,73.20
2019-02-18T23:45:05.646Z,73.30
2019-02-18T23:47:34.228Z,73.30
2019-02-18T23:50:02.588Z,73.00
2019-02-18T23:52:31.166Z,72.90
2019-02-18T23:55:00.242Z,73.10
2019-02-18T23:57:28.533Z,72.80
2019-02-18T23:59:56.913Z,72.80
